createdAt,value
2019-06-10T00:01:42.121Z,2.90
2019-06-10T00:04:12.583Z,2.87
2019-06-10T00:06:42.749Z,3.00
2019-06-10T00:09:12.548Z,3.17
2019-06-10T00:11:42.338Z,3.13
2019-06-10T00:14:12.127Z,2.63
2019-06-10T00:16:41.921Z,3.10
2019-06-10T00:19:12.895Z,3.70
2019-06-10T00:21:43.562Z,2.73
2019-06-10T00:24:13.375Z,2.73
2019-06-10T00:26:43.174Z,3.07
2019-06-10T00:29:12.966Z,2.93
2019-06-10T00:31:43.926Z,2.80
2019-06-10T00:34:13.959Z,2.77
2019-06-10T00:36:43.743Z,3.00
2019-06-10T00:39:13.868Z,2.60
2019-06-10T00:41:43.894Z,3.00
2019-06-10T00:44:13.780Z,2.90
2019-06-10T00:46:43.605Z,2.70
2019-06-10T00:49:15.326Z,2.50
2019-06-10T00:51:45.113Z,2.80
2019-06-10T00:54:15.759Z,2.70
2019-06-10T00:56:45.849Z,2.50
2019-06-10T00:59:15.687Z,2.27
2019-06-10T01:01:45.552Z,3.23
2019-06-10T01:04:16.597Z,2.60
2019-06-10T01:06:46.850Z,2.63
2019-06-10T01:09:16.747Z,2.50
2019-06-10T01:11:46.777Z,2.83
2019-06-10T01:14:16.574Z,2.73
2019-06-10T01:16:46.967Z,2.90
2019-06-10T01:19:17.361Z,2.50
2019-06-10T01:21:47.149Z,2.50
2019-06-10T01:24:17.543Z,2.40
2019-06-10T01:26:47.478Z,2.40
2019-06-10T01:29:18.112Z,2.23
2019-06-10T01:31:51.233Z,2.50
2019-06-10T01:34:21.911Z,2.20
2019-06-10T01:36:51.801Z,2.37
2019-06-10T01:39:22.629Z,2.23
2019-06-10T01:41:52.622Z,2.50
2019-06-10T01:44:22.456Z,2.30
2019-06-10T01:46:52.216Z,2.20
2019-06-10T01:49:23.162Z,2.10
2019-06-10T01:51:52.938Z,2.03
2019-06-10T01:54:22.717Z,2.50
2019-06-10T01:56:52.537Z,2.37
2019-06-10T01:59:22.330Z,2.30
2019-06-10T02:01:57.931Z,2.67
2019-06-10T02:04:27.751Z,2.40
2019-06-10T02:06:57.661Z,2.30
2019-06-10T02:09:30.858Z,2.37
2019-06-10T02:12:02.000Z,2.53
2019-06-10T02:14:32.060Z,2.30
2019-06-10T02:17:02.034Z,2.80
2019-06-10T02:19:31.811Z,2.60
2019-06-10T02:22:01.605Z,2.37
2019-06-10T02:24:31.722Z,2.67
2019-06-10T02:27:01.752Z,2.40
2019-06-10T02:29:31.557Z,2.63
2019-06-10T02:32:04.802Z,2.43
2019-06-10T02:34:41.731Z,2.60
2019-06-10T02:37:05.287Z,2.00
2019-06-10T02:39:39.025Z,2.67
2019-06-10T02:42:15.363Z,2.30
2019-06-10T02:44:44.784Z,2.10
2019-06-10T02:47:19.096Z,2.50
2019-06-10T02:49:57.713Z,2.60
2019-06-10T02:52:22.368Z,2.60
2019-06-10T02:54:53.203Z,2.27
2019-06-10T02:57:29.625Z,2.27
2019-06-10T02:59:54.464Z,2.20
2019-06-10T03:02:31.202Z,2.67
2019-06-10T03:04:58.250Z,2.37
2019-06-10T03:07:31.024Z,2.50
2019-06-10T03:09:59.486Z,2.27
2019-06-10T03:12:29.252Z,2.50
2019-06-10T03:14:59.055Z,2.60
2019-06-10T03:17:28.833Z,2.30
2019-06-10T03:19:58.633Z,2.20
2019-06-10T03:22:28.576Z,2.97
2019-06-10T03:24:58.788Z,2.27
2019-06-10T03:27:28.620Z,2.53
2019-06-10T03:29:58.454Z,2.50
2019-06-10T03:32:35.683Z,2.60
2019-06-10T03:35:05.018Z,2.57
2019-06-10T03:37:32.934Z,2.43
2019-06-10T03:40:02.803Z,2.30
2019-06-10T03:42:32.618Z,2.50
2019-06-10T03:45:03.320Z,2.73
2019-06-10T03:47:33.377Z,2.37
2019-06-10T03:50:03.527Z,3.00
2019-06-10T03:52:34.324Z,2.90
2019-06-10T03:55:04.934Z,2.40
2019-06-10T03:57:34.786Z,2.80
2019-06-10T04:00:10.432Z,2.60
2019-06-10T04:02:36.692Z,2.50
2019-06-10T04:05:06.798Z,3.07
2019-06-10T04:07:36.853Z,2.50
2019-06-10T04:10:07.158Z,2.63
2019-06-10T04:12:36.988Z,2.63
2019-06-10T04:15:08.780Z,2.43
2019-06-10T04:17:38.603Z,2.77
2019-06-10T04:20:12.343Z,2.57
2019-06-10T04:22:40.260Z,2.77
2019-06-10T04:25:12.136Z,2.73
2019-06-10T04:27:42.642Z,2.87
2019-06-10T04:30:15.828Z,2.80
2019-06-10T04:32:44.854Z,2.97
2019-06-10T04:35:15.455Z,2.40
2019-06-10T04:37:45.312Z,2.67
2019-06-10T04:40:16.450Z,2.60
2019-06-10T04:42:46.235Z,2.63
2019-06-10T04:45:16.305Z,2.57
2019-06-10T04:47:46.134Z,2.70
2019-06-10T04:50:24.720Z,2.73
2019-06-10T04:52:48.963Z,2.70
2019-06-10T04:55:18.902Z,2.53
2019-06-10T04:57:48.795Z,2.60
2019-06-10T05:00:19.148Z,2.67
2019-06-10T05:02:49.302Z,2.53
2019-06-10T05:05:19.090Z,2.83
2019-06-10T05:07:49.260Z,2.80
2019-06-10T05:10:19.226Z,2.83
2019-06-10T05:12:49.010Z,2.50
2019-06-10T05:15:19.539Z,2.43
2019-06-10T05:17:52.524Z,2.90
2019-06-10T05:20:28.302Z,2.40
2019-06-10T05:22:52.905Z,3.00
2019-06-10T05:25:25.355Z,2.53
2019-06-10T05:27:54.510Z,2.43
2019-06-10T05:30:27.760Z,2.60
2019-06-10T05:32:57.534Z,2.33
2019-06-10T05:35:28.450Z,2.77
2019-06-10T05:38:02.238Z,2.53
2019-06-10T05:40:34.091Z,2.90
2019-06-10T05:43:03.949Z,2.37
2019-06-10T05:45:35.081Z,2.50
2019-06-10T05:48:05.273Z,2.90
2019-06-10T05:50:35.200Z,2.77
2019-06-10T05:53:05.254Z,2.63
2019-06-10T05:55:35.393Z,2.60
2019-06-10T05:58:06.486Z,2.90
2019-06-10T06:00:36.482Z,2.53
2019-06-10T06:03:06.272Z,2.40
2019-06-10T06:05:37.961Z,2.37
2019-06-10T06:08:08.713Z,2.40
2019-06-10T06:10:39.121Z,2.70
2019-06-10T06:13:08.930Z,2.30
2019-06-10T06:15:38.714Z,2.47
2019-06-10T06:18:10.763Z,2.63
2019-06-10T06:20:40.178Z,2.40
2019-06-10T06:23:12.129Z,2.40
2019-06-10T06:25:44.290Z,2.40
2019-06-10T06:28:16.281Z,2.50
2019-06-10T06:30:46.308Z,2.20
2019-06-10T06:33:17.086Z,2.83
2019-06-10T06:35:47.359Z,2.60
2019-06-10T06:38:17.223Z,2.37
2019-06-10T06:40:47.021Z,2.47
2019-06-10T06:43:16.875Z,2.47
2019-06-10T06:45:46.650Z,2.60
2019-06-10T06:48:16.417Z,2.30
2019-06-10T06:51:01.936Z,2.40
2019-06-10T06:53:28.606Z,2.10
2019-06-10T06:55:53.477Z,2.43
2019-06-10T06:58:23.192Z,2.53
2019-06-10T07:01:05.186Z,2.60
2019-06-10T07:03:24.738Z,2.60
2019-06-10T07:05:55.193Z,2.53
2019-06-10T07:08:27.627Z,2.63
2019-06-10T07:11:02.680Z,2.43
2019-06-10T07:13:35.874Z,2.60
2019-06-10T07:16:05.703Z,2.50
2019-06-10T07:18:41.164Z,2.40
2019-06-10T07:21:08.408Z,2.37
2019-06-10T07:23:41.157Z,2.20
2019-06-10T07:26:09.696Z,2.33
2019-06-10T07:28:40.791Z,2.47
2019-06-10T07:31:20.842Z,2.50
2019-06-10T07:33:47.334Z,2.33
2019-06-10T07:36:18.136Z,2.30
2019-06-10T07:38:49.132Z,2.23
2019-06-10T07:41:19.355Z,2.33
2019-06-10T07:43:49.787Z,2.40
2019-06-10T07:46:22.777Z,2.40
2019-06-10T07:48:56.089Z,2.50
2019-06-10T07:51:23.565Z,2.60
2019-06-10T07:53:53.354Z,2.47
2019-06-10T07:56:23.629Z,2.30
2019-06-10T07:58:53.584Z,2.40
2019-06-10T08:01:23.511Z,2.50
2019-06-10T08:03:53.279Z,2.37
2019-06-10T08:06:23.235Z,2.67
2019-06-10T08:08:53.557Z,2.40
2019-06-10T08:11:24.326Z,2.47
2019-06-10T08:13:55.412Z,2.40
2019-06-10T08:16:25.202Z,2.40
2019-06-10T08:19:20.936Z,2.40
2019-06-10T08:21:26.530Z,2.30
2019-06-10T08:23:56.666Z,2.87
2019-06-10T08:26:26.448Z,2.50
2019-06-10T08:28:56.581Z,2.63
2019-06-10T08:31:26.382Z,2.07
2019-06-10T08:33:57.037Z,2.43
2019-06-10T08:36:27.266Z,2.60
2019-06-10T08:38:57.846Z,2.60
2019-06-10T08:41:27.628Z,2.33
2019-06-10T08:43:57.418Z,2.17
2019-06-10T08:46:27.327Z,2.27
2019-06-10T08:48:59.191Z,2.80
2019-06-10T08:51:29.297Z,2.77
2019-06-10T08:53:59.150Z,2.43
2019-06-10T08:56:29.066Z,2.50
2019-06-10T08:58:59.150Z,2.40
2019-06-10T09:01:31.102Z,2.13
2019-06-10T09:04:03.185Z,2.40
2019-06-10T09:06:33.355Z,2.20
2019-06-10T09:09:05.042Z,2.47
2019-06-10T09:11:35.727Z,2.10
2019-06-10T09:14:05.874Z,2.37
2019-06-10T09:16:35.665Z,2.27
2019-06-10T09:19:05.601Z,2.30
2019-06-10T09:21:35.651Z,2.57
2019-06-10T09:24:05.626Z,2.30
2019-06-10T09:26:35.426Z,2.30
2019-06-10T09:29:05.386Z,2.60
2019-06-10T09:31:35.432Z,2.50
2019-06-10T09:34:06.658Z,2.10
2019-06-10T09:36:36.442Z,2.20
2019-06-10T09:39:07.670Z,2.30
2019-06-10T09:41:43.147Z,2.53
2019-06-10T09:44:09.732Z,2.23
2019-06-10T09:46:44.582Z,2.60
2019-06-10T09:49:14.246Z,2.13
2019-06-10T09:51:48.206Z,2.30
2019-06-10T09:54:16.844Z,2.17
2019-06-10T09:56:48.466Z,2.60
2019-06-10T09:59:18.194Z,2.77
2019-06-10T10:01:50.991Z,2.33
2019-06-10T10:04:19.797Z,2.90
2019-06-10T10:06:52.439Z,2.33
2019-06-10T10:09:23.189Z,2.20
2019-06-10T10:11:55.351Z,2.43
2019-06-10T10:14:24.928Z,2.77
2019-06-10T10:16:59.176Z,2.23
2019-06-10T10:19:26.587Z,2.10
2019-06-10T10:24:45.606Z,2.27
2019-06-10T10:27:15.883Z,2.10
2019-06-10T10:29:48.870Z,2.40
2019-06-10T10:32:17.817Z,2.40
2019-06-10T10:34:49.854Z,2.70
2019-06-10T10:37:19.714Z,2.33
2019-06-10T10:39:53.738Z,2.40
2019-06-10T10:42:23.743Z,1.97
2019-06-10T10:44:58.840Z,2.23
2019-06-10T10:47:27.610Z,2.27
2019-06-10T10:49:57.149Z,2.07
2019-06-10T10:52:27.175Z,2.03
2019-06-10T10:54:56.985Z,2.63
2019-06-10T10:57:26.816Z,2.20
2019-06-10T10:59:57.629Z,2.77
2019-06-10T11:02:27.415Z,2.10
2019-06-10T11:04:57.382Z,2.63
2019-06-10T11:07:27.360Z,2.63
2019-06-10T11:09:57.182Z,2.60
2019-06-10T11:12:28.340Z,2.57
2019-06-10T11:15:02.163Z,2.40
2019-06-10T11:17:33.631Z,2.60
2019-06-10T11:20:03.835Z,2.30
2019-06-10T11:22:34.036Z,2.60
2019-06-10T11:25:04.417Z,2.30
2019-06-10T11:27:34.206Z,3.00
2019-06-10T11:30:05.350Z,2.47
2019-06-10T11:32:36.774Z,2.60
2019-06-10T11:35:07.016Z,2.53
2019-06-10T11:37:36.878Z,2.67
2019-06-10T11:40:08.387Z,2.30
2019-06-10T11:42:38.244Z,2.60
2019-06-10T11:45:09.115Z,2.27
2019-06-10T11:47:39.034Z,2.50
2019-06-10T11:50:12.133Z,2.00
2019-06-10T11:52:43.323Z,2.30
2019-06-10T11:55:18.791Z,1.80
2019-06-10T11:57:45.078Z,2.83
2019-06-10T12:00:17.369Z,2.37
2019-06-10T12:02:48.016Z,2.50
2019-06-10T12:05:20.504Z,2.57
2019-06-10T12:07:51.849Z,2.20
2019-06-10T12:10:24.746Z,2.60
2019-06-10T12:12:57.897Z,2.70
2019-06-10T12:15:26.234Z,2.07
2019-06-10T12:18:01.850Z,2.20
2019-06-10T12:20:28.565Z,2.30
2019-06-10T12:23:02.109Z,2.30
2019-06-10T12:25:38.834Z,2.20
2019-06-10T12:28:06.607Z,2.50
2019-06-10T12:30:34.613Z,2.50
2019-06-10T12:33:05.634Z,2.40
2019-06-10T12:35:36.582Z,2.23
2019-06-10T12:38:06.455Z,2.50
2019-06-10T12:40:37.443Z,2.40
2019-06-10T12:43:07.758Z,2.50
2019-06-10T12:45:37.991Z,2.33
2019-06-10T12:48:07.775Z,2.43
2019-06-10T12:50:37.670Z,2.00
2019-06-10T12:53:07.530Z,2.23
2019-06-10T12:55:43.215Z,2.20
2019-06-10T12:58:09.302Z,2.20
2019-06-10T13:00:46.631Z,2.30
2019-06-10T13:03:17.003Z,2.00
2019-06-10T13:05:46.954Z,2.27
2019-06-10T13:08:20.245Z,2.30
2019-06-10T13:10:48.484Z,2.40
2019-06-10T13:13:18.309Z,2.43
2019-06-10T13:15:48.182Z,2.27
2019-06-10T13:18:19.497Z,2.10
2019-06-10T13:20:50.471Z,2.13
2019-06-10T13:23:30.477Z,2.17
2019-06-10T13:25:57.827Z,2.17
2019-06-10T13:28:23.562Z,2.03
2019-06-10T13:30:54.580Z,2.27
2019-06-10T13:33:26.330Z,2.20
2019-06-10T13:35:56.807Z,2.30
2019-06-10T13:38:27.528Z,2.17
2019-06-10T13:40:59.555Z,2.23
2019-06-10T13:43:29.569Z,2.43
2019-06-10T13:46:00.070Z,2.20
2019-06-10T13:48:32.066Z,2.27
2019-06-10T13:51:07.218Z,2.17
2019-06-10T13:53:33.936Z,2.20
2019-06-10T13:56:30.322Z,2.70
2019-06-10T13:58:35.334Z,2.30
2019-06-10T14:01:09.464Z,2.00
2019-06-10T14:03:36.708Z,2.03
2019-06-10T14:06:20.945Z,2.57
2019-06-10T14:08:38.654Z,1.97
2019-06-10T14:11:10.086Z,2.20
2019-06-10T14:13:39.878Z,2.43
2019-06-10T14:16:09.671Z,2.40
2019-06-10T14:18:39.439Z,2.40
2019-06-10T14:21:13.040Z,2.30
2019-06-10T14:23:42.363Z,2.70
2019-06-10T14:26:16.818Z,2.43
2019-06-10T14:28:44.479Z,2.57
2019-06-10T14:31:37.614Z,2.13
2019-06-10T14:33:46.315Z,2.27
2019-06-10T14:36:16.993Z,2.30
2019-06-10T14:38:46.874Z,2.23
2019-06-10T14:41:17.582Z,2.30
2019-06-10T14:43:47.378Z,2.10
2019-06-10T14:46:17.765Z,2.47
2019-06-10T14:48:47.859Z,2.40
2019-06-10T14:51:17.686Z,2.53
2019-06-10T14:53:47.447Z,2.50
2019-06-10T14:56:19.643Z,2.93
2019-06-10T14:58:49.172Z,2.87
2019-06-10T15:01:25.059Z,2.47
2019-06-10T15:03:52.318Z,2.73
2019-06-10T15:06:22.685Z,2.50
2019-06-10T15:08:53.440Z,2.57
2019-06-10T15:11:27.667Z,2.57
2019-06-10T15:13:56.728Z,2.97
2019-06-10T15:16:26.531Z,2.50
2019-06-10T15:19:10.870Z,2.50
2019-06-10T15:21:27.845Z,2.40
2019-06-10T15:23:57.622Z,2.60
2019-06-10T15:26:27.402Z,2.80
2019-06-10T15:28:57.400Z,3.07
2019-06-10T15:31:27.176Z,2.50
2019-06-10T15:33:58.925Z,2.90
2019-06-10T15:36:28.703Z,2.80
2019-06-10T15:38:58.479Z,2.87
2019-06-10T15:41:28.446Z,2.70
2019-06-10T15:43:58.898Z,3.03
2019-06-10T15:46:28.699Z,2.73
2019-06-10T15:48:58.569Z,2.60
2019-06-10T15:51:28.610Z,2.80
2019-06-10T15:53:58.472Z,2.80
2019-06-10T15:56:39.883Z,2.70
2019-06-10T15:59:00.094Z,3.03
2019-06-10T16:01:29.874Z,2.40
2019-06-10T16:04:01.362Z,2.77
2019-06-10T16:06:33.016Z,3.07
2019-06-10T16:09:03.210Z,2.87
2019-06-10T16:11:33.153Z,2.57
2019-06-10T16:14:03.206Z,2.90
2019-06-10T16:16:33.134Z,3.00
2019-06-10T16:19:03.007Z,2.63
2019-06-10T16:21:32.863Z,2.60
2019-06-10T16:24:02.948Z,2.90
2019-06-10T16:26:35.381Z,3.03
2019-06-10T16:29:04.470Z,2.60
2019-06-10T16:31:34.321Z,2.97
2019-06-10T16:34:04.661Z,2.80
2019-06-10T16:36:35.099Z,2.97
2019-06-10T16:39:07.117Z,2.93
2019-06-10T16:41:36.922Z,2.90
2019-06-10T16:44:07.334Z,2.60
2019-06-10T16:46:37.114Z,2.80
2019-06-10T16:49:06.979Z,2.97
2019-06-10T16:51:38.150Z,3.67
2019-06-10T16:54:08.785Z,3.00
2019-06-10T16:56:38.571Z,2.67
2019-06-10T16:59:08.518Z,2.90
2019-06-10T17:01:38.403Z,3.20
2019-06-10T17:04:08.360Z,2.93
2019-06-10T17:06:38.210Z,3.17
2019-06-10T17:09:08.447Z,2.97
2019-06-10T17:11:38.294Z,2.77
2019-06-10T17:14:08.341Z,3.20
2019-06-10T17:16:40.566Z,3.00
2019-06-10T17:19:09.610Z,2.90
2019-06-10T17:21:42.048Z,3.30
2019-06-10T17:24:12.829Z,3.00
2019-06-10T17:26:42.715Z,3.10
2019-06-10T17:29:12.809Z,3.30
2019-06-10T17:31:43.483Z,3.37
2019-06-10T17:34:13.863Z,3.03
2019-06-10T17:36:43.649Z,3.03
2019-06-10T17:39:13.462Z,3.07
2019-06-10T17:41:43.302Z,3.00
2019-06-10T17:44:13.240Z,2.80
2019-06-10T17:46:43.702Z,3.37
2019-06-10T17:49:13.490Z,3.27
2019-06-10T17:51:43.401Z,3.10
2019-06-10T17:54:13.247Z,3.07
2019-06-10T17:56:43.062Z,3.10
2019-06-10T17:59:12.955Z,2.90
2019-06-10T18:01:43.097Z,3.30
2019-06-10T18:04:13.105Z,3.10
2019-06-10T18:06:43.020Z,3.47
2019-06-10T18:09:12.790Z,3.03
2019-06-10T18:11:42.991Z,2.90
2019-06-10T18:14:12.961Z,2.93
2019-06-10T18:16:42.833Z,3.10
2019-06-10T18:19:12.593Z,2.77
2019-06-10T18:21:42.366Z,3.00
2019-06-10T18:24:12.864Z,3.23
2019-06-10T18:26:42.771Z,2.90
2019-06-10T18:29:12.992Z,3.10
2019-06-10T18:31:43.747Z,2.83
2019-06-10T18:34:14.190Z,2.70
2019-06-10T18:36:43.962Z,2.77
2019-06-10T18:39:14.927Z,3.13
2019-06-10T18:41:46.040Z,2.80
2019-06-10T18:44:23.034Z,2.90
2019-06-10T18:46:48.442Z,2.93
2019-06-10T18:49:18.306Z,2.63
2019-06-10T18:51:48.079Z,3.17
2019-06-10T18:54:17.900Z,2.93
2019-06-10T18:56:47.681Z,3.10
2019-06-10T18:59:21.120Z,2.90
2019-06-10T19:01:48.966Z,3.23
2019-06-10T19:04:18.779Z,2.60
2019-06-10T19:06:48.556Z,3.10
2019-06-10T19:09:18.391Z,3.07
2019-06-10T19:11:48.150Z,3.20
2019-06-10T19:14:17.944Z,2.80
2019-06-10T19:16:47.791Z,3.00
2019-06-10T19:19:17.555Z,2.97
2019-06-10T19:22:01.768Z,2.40
2019-06-10T19:24:19.540Z,2.73
2019-06-10T19:26:49.330Z,2.83
2019-06-10T19:29:30.759Z,3.07
2019-06-10T19:31:52.628Z,3.10
2019-06-10T19:34:22.760Z,3.10
2019-06-10T19:36:53.000Z,2.97
2019-06-10T19:39:23.036Z,2.83
2019-06-10T19:41:53.088Z,2.90
2019-06-10T19:44:23.443Z,3.10
2019-06-10T19:46:54.247Z,3.00
2019-06-10T19:49:24.029Z,2.97
2019-06-10T19:51:53.801Z,3.10
2019-06-10T19:54:23.586Z,2.60
2019-06-10T19:56:53.350Z,3.10
2019-06-10T19:59:23.278Z,3.13
2019-06-10T20:01:54.284Z,2.83
2019-06-10T20:04:24.247Z,2.70
2019-06-10T20:06:54.101Z,2.43
2019-06-10T20:09:23.880Z,3.07
2019-06-10T20:11:53.729Z,2.80
2019-06-10T20:14:23.498Z,2.87
2019-06-10T20:16:53.319Z,2.93
2019-06-10T20:19:23.306Z,2.27
2019-06-10T20:21:53.314Z,3.07
2019-06-10T20:24:24.086Z,3.00
2019-06-10T20:26:53.863Z,2.83
2019-06-10T20:29:23.625Z,2.90
2019-06-10T20:31:54.811Z,2.77
2019-06-10T20:34:25.977Z,2.80
2019-06-10T20:36:55.959Z,2.57
2019-06-10T20:39:29.150Z,2.87
2019-06-10T20:41:57.216Z,2.77
2019-06-10T20:44:27.063Z,2.77
2019-06-10T20:46:57.943Z,3.07
2019-06-10T20:49:27.710Z,2.97
2019-06-10T20:52:09.917Z,3.03
2019-06-10T20:54:29.075Z,2.97
2019-06-10T20:56:58.894Z,3.00
2019-06-10T20:59:28.670Z,2.80
2019-06-10T21:01:58.914Z,3.70
2019-06-10T21:04:28.960Z,3.30
2019-06-10T21:07:02.468Z,3.23
2019-06-10T21:09:33.147Z,3.43
2019-06-10T21:12:02.942Z,3.30
2019-06-10T21:14:33.185Z,3.57
2019-06-10T21:17:04.126Z,3.30
2019-06-10T21:19:34.162Z,3.60
2019-06-10T21:22:04.000Z,2.93
2019-06-10T21:24:33.767Z,3.60
2019-06-10T21:27:03.538Z,3.63
2019-06-10T21:29:33.414Z,2.87
2019-06-10T21:32:04.239Z,3.53
2019-06-10T21:34:34.266Z,3.00
2019-06-10T21:37:04.118Z,3.40
2019-06-10T21:39:33.941Z,3.17
2019-06-10T21:42:03.798Z,3.30
2019-06-10T21:44:33.578Z,3.77
2019-06-10T21:47:04.087Z,3.10
2019-06-10T21:49:33.858Z,3.30
2019-06-10T21:52:03.706Z,3.40
2019-06-10T21:54:33.569Z,3.13
2019-06-10T21:57:03.346Z,3.50
2019-06-10T21:59:33.098Z,3.50
2019-06-10T22:02:03.438Z,2.97
2019-06-10T22:04:33.250Z,2.90
2019-06-10T22:07:03.258Z,2.90
2019-06-10T22:09:33.226Z,3.13
2019-06-10T22:12:03.106Z,2.83
2019-06-10T22:14:34.879Z,2.43
2019-06-10T22:17:04.918Z,2.50
2019-06-10T22:19:34.682Z,2.73
2019-06-10T22:22:04.717Z,3.13
2019-06-10T22:24:34.491Z,3.37
2019-06-10T22:27:04.414Z,2.57
2019-06-10T22:29:34.531Z,2.50
2019-06-10T22:32:04.970Z,2.80
2019-06-10T22:34:36.206Z,2.60
2019-06-10T22:37:06.046Z,2.80
2019-06-10T22:39:35.810Z,2.90
2019-06-10T22:42:05.733Z,2.97
2019-06-10T22:44:35.526Z,2.67
2019-06-10T22:47:05.775Z,2.97
2019-06-10T22:49:35.557Z,3.10
2019-06-10T22:52:05.336Z,2.90
2019-06-10T22:54:35.126Z,2.50
2019-06-10T22:57:04.976Z,2.60
2019-06-10T22:59:35.358Z,2.70
2019-06-10T23:02:06.014Z,3.23
2019-06-10T23:04:35.778Z,3.03
2019-06-10T23:07:05.630Z,2.97
2019-06-10T23:09:35.394Z,3.03
2019-06-10T23:12:05.336Z,3.00
2019-06-10T23:14:35.129Z,3.10
2019-06-10T23:17:05.059Z,2.93
2019-06-10T23:19:35.287Z,3.00
2019-06-10T23:22:05.234Z,2.90
2019-06-10T23:24:34.998Z,3.00
2019-06-10T23:27:04.877Z,3.00
2019-06-10T23:29:34.766Z,3.10
2019-06-10T23:32:07.043Z,3.00
2019-06-10T23:34:37.551Z,3.00
2019-06-10T23:37:07.400Z,2.63
2019-06-10T23:39:37.158Z,2.90
2019-06-10T23:42:06.921Z,2.83
2019-06-10T23:44:36.710Z,2.67
2019-06-10T23:47:06.550Z,2.83
2019-06-10T23:49:37.455Z,3.27
2019-06-10T23:52:07.231Z,3.07
2019-06-10T23:54:37.017Z,3.03
2019-06-10T23:57:06.839Z,2.60
2019-06-10T23:59:37.319Z,2.70
